Time;durP1;ratioP1;P1;durP2;ratioP2;P2;SDS_P1;SDS_P2;PMS_P1;PMS_P2;Temp;Humidity;BMP_temperature;BMP_pressure;BME280_temperature;BME280_humidity;BME280_pressure;Samples;Min_cycle;Max_cycle;Signal;HPM_P1;HPM_P2
2022/09/24 00:01:21;;;;;;;1999.90;999.90;;;17.60;99.90;;;;;;5113153;28;20728;-83
2022/09/24 00:04:03;;;;;;;1999.90;999.90;;;16.60;99.90;;;;;;5113719;28;20046;-83
2022/09/24 00:06:33;;;;;;;1999.90;999.90;;;17.10;99.90;;;;;;5094076;28;20051;-84
2022/09/24 00:08:58;;;;;;;1999.90;999.90;;;16.20;99.90;;;;;;5111664;28;20369;-83
2022/09/24 00:11:26;;;;;;;1999.90;999.90;;;16.70;99.90;;;;;;5111119;28;20100;-83
2022/09/24 00:13:54;;;;;;;1999.90;999.90;;;17.70;99.90;;;;;;5095094;28;20099;-83
2022/09/24 00:16:22;;;;;;;1999.90;999.90;;;16.70;99.90;;;;;;5112812;28;20071;-83
2022/09/24 00:18:48;;;;;;;1999.90;999.90;;;17.20;99.90;;;;;;5112593;28;20059;-83
2022/09/24 00:21:16;;;;;;;1999.90;999.90;;;17.50;99.90;;;;;;5113305;28;20056;-88
2022/09/24 00:23:42;;;;;;;1999.90;999.90;;;17.30;99.90;;;;;;5112758;28;20051;-84
2022/09/24 00:29:11;;;;;;;1999.90;999.90;;;17.80;99.90;;;;;;5067684;28;20052;-84
2022/09/24 00:31:37;;;;;;;1999.90;999.90;;;17.80;99.90;;;;;;5112767;28;20100;-85
2022/09/24 00:34:03;;;;;;;1999.90;999.90;;;17.20;99.90;;;;;;5112734;28;20051;-85
2022/09/24 00:36:29;;;;;;;1999.90;999.90;;;16.90;99.90;;;;;;5112138;28;20070;-85
2022/09/24 00:38:58;;;;;;;1999.90;999.90;;;18.00;99.90;;;;;;5076732;28;20389;-85
2022/09/24 00:41:30;;;;;;;1999.90;999.90;;;17.40;99.90;;;;;;5112020;28;20036;-84
2022/09/24 00:43:56;;;;;;;1999.90;999.90;;;17.00;99.90;;;;;;5113142;28;20043;-84
2022/09/24 00:46:41;;;;;;;1999.90;999.90;;;18.10;99.90;;;;;;5077056;28;20047;-85
2022/09/24 00:49:13;;;;;;;1999.90;999.90;;;17.20;99.90;;;;;;5111887;28;20097;-85
2022/09/24 00:51:41;;;;;;;1999.90;999.90;;;18.10;99.90;;;;;;5112513;28;20047;-85
2022/09/24 00:54:11;;;;;;;1999.90;999.90;;;16.90;99.90;;;;;;5077685;28;20047;-85
2022/09/24 00:56:39;;;;;;;1999.90;999.90;;;18.00;99.90;;;;;;5111285;28;20036;-85
2022/09/24 00:59:10;;;;;;;1999.90;999.90;;;18.20;99.90;;;;;;5112657;28;20055;-85
2022/09/24 01:01:36;;;;;;;1999.90;999.90;;;18.10;99.90;;;;;;5112507;28;20044;-85
2022/09/24 01:04:05;;;;;;;1999.90;999.90;;;17.30;99.90;;;;;;5112264;28;20035;-85
2022/09/24 01:06:30;;;;;;;1999.90;999.90;;;17.10;99.90;;;;;;5093678;28;20130;-85
2022/09/24 01:08:57;;;;;;;1999.90;999.90;;;17.10;99.90;;;;;;5112796;28;20126;-88
2022/09/24 01:12:14;;;;;;;1999.90;999.90;;;18.10;99.90;;;;;;5111992;28;20050;-87
2022/09/24 01:15:06;;;;;;;1999.90;999.90;;;17.10;99.90;;;;;;5059633;28;20389;-85
2022/09/24 01:17:31;;;;;;;1999.90;999.90;;;17.30;99.90;;;;;;5111714;28;20055;-85
2022/09/24 01:20:24;;;;;;;1999.90;999.90;;;18.20;99.90;;;;;;5094431;28;20055;-86
2022/09/24 01:23:15;;;;;;;1999.90;999.90;;;18.20;99.90;;;;;;5077845;28;20058;-85
2022/09/24 01:26:20;;;;;;;1999.90;999.90;;;18.20;99.90;;;;;;5111957;28;20043;-86
2022/09/24 01:29:05;;;;;;;1999.90;999.90;;;17.20;99.90;;;;;;5111861;28;20442;-86
2022/09/24 01:31:45;;;;;;;1999.90;999.90;;;18.20;99.90;;;;;;5076558;28;20044;-86
2022/09/24 01:34:16;;;;;;;1999.90;999.90;;;17.60;99.90;;;;;;5112583;28;20048;-85
2022/09/24 01:36:44;;;;;;;1999.90;999.90;;;18.10;99.90;;;;;;5111951;28;20047;-85
2022/09/24 01:39:10;;;;;;;1999.90;999.90;;;17.20;99.90;;;;;;5111889;28;20054;-85
2022/09/24 01:41:38;;;;;;;1999.90;999.90;;;17.20;99.90;;;;;;5093397;28;20292;-86
2022/09/24 01:44:06;;;;;;;1999.90;999.90;;;18.30;99.90;;;;;;5112081;28;20104;-86
2022/09/24 01:46:32;;;;;;;1999.90;999.90;;;17.60;99.90;;;;;;5093278;28;20091;-86
2022/09/24 01:48:58;;;;;;;1999.90;999.90;;;17.30;99.90;;;;;;5077287;28;20032;-86
2022/09/24 01:51:36;;;;;;;1999.90;999.90;;;17.20;99.90;;;;;;5115638;28;20113;-86
2022/09/24 01:54:08;;;;;;;1999.90;999.90;;;15.60;99.90;;;;;;5116264;28;20074;-86
2022/09/24 01:56:43;;;;;;;1999.90;999.90;;;17.90;99.90;;;;;;5114945;28;20039;-89
2022/09/24 01:59:15;;;;;;;1999.90;999.90;;;17.30;99.90;;;;;;5080188;28;20047;-86
2022/09/24 02:02:03;;;;;;;1999.90;999.90;;;17.30;99.90;;;;;;5096981;28;20048;-85
2022/09/24 02:04:32;;;;;;;1999.90;999.90;;;17.30;99.90;;;;;;5116002;28;20051;-89
2022/09/24 02:07:12;;;;;;;1999.90;999.90;;;17.30;99.90;;;;;;5097334;28;20396;-84
2022/09/24 02:09:41;;;;;;;1999.90;999.90;;;18.30;99.90;;;;;;5115442;28;20096;-85
2022/09/24 02:12:34;;;;;;;1999.90;999.90;;;17.50;99.90;;;;;;5115202;28;20048;-84
2022/09/24 02:15:13;;;;;;;1999.90;999.90;;;17.70;99.90;;;;;;5115784;28;20104;-84
2022/09/24 02:17:40;;;;;;;;;;;18.40;99.90;;;;;;5097515;28;20087;-86
2022/09/24 02:20:12;;;;;;;1999.90;999.90;;;17.30;99.90;;;;;;5114966;28;19920;-86
2022/09/24 02:22:40;;;;;;;1999.90;999.90;;;18.30;99.90;;;;;;5115016;28;20052;-85
2022/09/24 02:25:11;;;;;;;1999.90;999.90;;;17.40;99.90;;;;;;5115290;28;20476;-86
2022/09/24 02:27:37;;;;;;;1999.90;999.90;;;18.10;99.90;;;;;;5080005;28;20547;-85
2022/09/24 02:30:05;;;;;;;1999.90;999.90;;;17.90;99.90;;;;;;5097169;28;20185;-85
2022/09/24 02:32:34;;;;;;;1999.90;999.90;;;18.30;99.90;;;;;;5114792;28;20048;-86
2022/09/24 02:35:04;;;;;;;1999.90;999.90;;;17.30;99.90;;;;;;5115609;28;20048;-87
2022/09/24 02:37:34;;;;;;;1999.90;999.90;;;17.40;99.90;;;;;;5096943;28;20048;-84
2022/09/24 02:40:01;;;;;;;1999.90;999.90;;;17.30;99.90;;;;;;5115431;28;20126;-84
2022/09/24 02:42:30;;;;;;;1999.90;999.90;;;18.40;99.90;;;;;;5096048;28;20051;-86
2022/09/24 02:44:57;;;;;;;1999.90;999.90;;;17.70;99.90;;;;;;5079980;28;20505;-84
2022/09/24 02:47:23;;;;;;;1999.90;999.90;;;18.30;99.90;;;;;;5114507;28;20556;-85
2022/09/24 02:49:48;;;;;;;1999.90;999.90;;;18.30;99.90;;;;;;5096397;28;20043;-84
2022/09/24 02:52:14;;;;;;;1999.90;999.90;;;17.40;99.90;;;;;;5096098;28;20101;-84
2022/09/24 02:54:40;;;;;;;1999.90;999.90;;;18.30;99.90;;;;;;5114040;28;20047;-85
2022/09/24 02:57:06;;;;;;;1999.90;999.90;;;18.20;99.90;;;;;;5096200;28;20122;-85
2022/09/24 02:59:31;;;;;;;1999.90;999.90;;;18.30;99.90;;;;;;5113518;28;20052;-85
2022/09/24 03:01:57;;;;;;;1999.90;999.90;;;17.30;99.90;;;;;;5113463;28;20043;-86
2022/09/24 03:04:24;;;;;;;1999.90;999.90;;;17.40;99.90;;;;;;5114847;28;20158;-85
2022/09/24 03:06:49;;;;;;;1999.90;999.90;;;18.50;99.90;;;;;;5095826;28;20079;-85
2022/09/24 03:09:15;;;;;;;1999.90;999.90;;;17.50;99.90;;;;;;5095820;28;20089;-84
2022/09/24 03:11:41;;;;;;;1999.90;999.90;;;17.90;99.90;;;;;;5113827;28;20108;-86
2022/09/24 03:14:07;;;;;;;1999.90;999.90;;;17.90;99.90;;;;;;5113550;28;20044;-85
2022/09/24 03:16:32;;;;;;;1999.90;999.90;;;18.40;99.90;;;;;;5114180;28;20519;-85
2022/09/24 03:18:58;;;;;;;1999.90;999.90;;;16.90;99.90;;;;;;5113675;28;20503;-85
2022/09/24 03:21:24;;;;;;;1999.90;999.90;;;17.70;99.90;;;;;;5096793;28;20040;-85
2022/09/24 03:23:50;;;;;;;1999.90;999.90;;;17.50;99.90;;;;;;5112946;28;20047;-85
2022/09/24 03:26:16;;;;;;;1999.90;999.90;;;18.50;99.90;;;;;;5113754;28;20043;-86
2022/09/24 03:28:42;;;;;;;1999.90;999.90;;;18.30;99.90;;;;;;5112915;28;20043;-85
2022/09/24 03:31:08;;;;;;;1999.90;999.90;;;18.50;99.90;;;;;;5096330;28;20054;-85
2022/09/24 03:33:40;;;;;;;1999.90;999.90;;;17.50;99.90;;;;;;5112895;28;20040;-84
2022/09/24 03:36:12;;;;;;;1999.90;999.90;;;18.60;99.90;;;;;;5114150;28;20039;-84
2022/09/24 03:38:39;;;;;;;1999.90;999.90;;;18.50;99.90;;;;;;5113147;28;20044;-88
2022/09/24 03:41:07;;;;;;;1999.90;999.90;;;17.90;99.90;;;;;;5113928;28;20541;-84
2022/09/24 03:43:33;;;;;;;1999.90;999.90;;;18.50;99.90;;;;;;5113451;28;20051;-84
2022/09/24 03:45:59;;;;;;;1999.90;999.90;;;18.60;99.90;;;;;;5112782;28;20036;-84
2022/09/24 03:48:26;;;;;;;1999.90;999.90;;;17.50;99.90;;;;;;5112750;28;20051;-84
2022/09/24 03:50:52;;;;;;;1999.90;999.90;;;17.50;99.90;;;;;;5113195;28;20044;-85
2022/09/24 03:53:18;;;;;;;1999.90;999.90;;;18.60;99.90;;;;;;5127008;28;20053;-85
2022/09/24 03:55:55;;;;;;;1999.90;999.90;;;18.40;99.90;;;;;;5115547;28;20024;-90
2022/09/24 03:58:22;;;;;;;1999.90;999.90;;;18.60;99.90;;;;;;5115969;28;20049;-85
2022/09/24 04:00:49;;;;;;;1999.90;999.90;;;17.50;99.90;;;;;;5132959;28;20040;-86
2022/09/24 04:03:15;;;;;;;1999.90;999.90;;;17.60;99.90;;;;;;5114268;28;20047;-85
2022/09/24 04:05:41;;;;;;;1999.90;999.90;;;18.00;99.90;;;;;;5114362;28;20051;-84
2022/09/24 04:08:08;;;;;;;1999.90;999.90;;;18.40;99.90;;;;;;5130457;28;20123;-86
2022/09/24 04:10:33;;;;;;;1999.90;999.90;;;18.70;99.90;;;;;;5110062;28;20092;-83
2022/09/24 04:12:59;;;;;;;1999.90;999.90;;;18.60;99.90;;;;;;5116238;28;20051;-83
2022/09/24 04:15:25;;;;;;;1999.90;999.90;;;18.30;99.90;;;;;;5079102;28;20134;-83
2022/09/24 04:17:51;;;;;;;1999.90;999.90;;;17.60;99.90;;;;;;5113093;28;20054;-84
2022/09/24 04:20:21;;;;;;;1999.90;999.90;;;17.70;99.90;;;;;;5095812;28;20051;-87
2022/09/24 04:22:52;;;;;;;1999.90;999.90;;;18.20;99.90;;;;;;5113644;28;20100;-88
2022/09/24 04:25:19;;;;;;;1999.90;999.90;;;18.70;99.90;;;;;;5113556;28;20047;-85
2022/09/24 04:27:45;;;;;;;1999.90;999.90;;;18.70;99.90;;;;;;5093867;28;20416;-84
2022/09/24 04:30:13;;;;;;;1999.90;999.90;;;18.70;99.90;;;;;;5113161;28;20055;-85
2022/09/24 04:32:42;;;;;;;1999.90;999.90;;;17.60;99.90;;;;;;5095587;28;20139;-85
2022/09/24 04:35:08;;;;;;;1999.90;999.90;;;16.80;99.90;;;;;;5113273;28;20148;-85
2022/09/24 04:37:34;;;;;;;1999.90;999.90;;;18.70;99.90;;;;;;5111137;28;20043;-86
2022/09/24 04:40:00;;;;;;;1999.90;999.90;;;18.60;99.90;;;;;;5111984;28;20051;-87
2022/09/24 04:42:26;;;;;;;1999.90;999.90;;;18.70;99.90;;;;;;5094212;28;20047;-86
2022/09/24 04:44:52;;;;;;;1999.90;999.90;;;18.30;99.90;;;;;;5112190;28;20093;-88
2022/09/24 04:47:18;;;;;;;1999.90;999.90;;;17.80;99.90;;;;;;5077478;28;20118;-87
2022/09/24 04:49:44;;;;;;;1999.90;999.90;;;18.70;99.90;;;;;;5112255;28;20441;-87
2022/09/24 04:52:16;;;;;;;1999.90;999.90;;;18.80;99.90;;;;;;5111769;28;20153;-87
2022/09/24 04:54:46;;;;;;;1999.90;999.90;;;18.30;99.90;;;;;;5094911;28;20403;-87
2022/09/24 04:57:13;;;;;;;1999.90;999.90;;;18.80;99.90;;;;;;5111556;28;20054;-87
2022/09/24 04:59:39;;;;;;;1999.90;999.90;;;17.70;99.90;;;;;;5112993;28;20048;-88
2022/09/24 05:02:08;;;;;;;1999.90;999.90;;;18.60;99.90;;;;;;5111997;28;20400;-87
2022/09/24 05:04:36;;;;;;;1999.90;999.90;;;17.80;99.90;;;;;;5110154;28;20134;-88
2022/09/24 05:07:03;;;;;;;1999.90;999.90;;;18.80;99.90;;;;;;5112084;28;20048;-87
2022/09/24 05:09:32;;;;;;;1999.90;999.90;;;17.90;99.90;;;;;;5092842;28;20052;-85
2022/09/24 05:11:58;;;;;;;1999.90;999.90;;;18.80;99.90;;;;;;5111212;28;20420;-85
2022/09/24 05:14:24;;;;;;;1999.90;999.90;;;18.40;99.90;;;;;;5112710;28;20043;-88
2022/09/24 05:16:50;;;;;;;1999.90;999.90;;;17.70;99.90;;;;;;5077323;28;20040;-87
2022/09/24 05:19:15;;;;;;;1999.90;999.90;;;18.30;99.90;;;;;;5111946;28;20070;-86
2022/09/24 05:21:41;;;;;;;1999.90;999.90;;;18.90;99.90;;;;;;5112579;28;20055;-87
2022/09/24 05:24:07;;;;;;;1999.90;999.90;;;18.90;99.90;;;;;;5094381;28;20092;-86
2022/09/24 05:29:18;;;;;;;1999.90;999.90;;;17.70;99.90;;;;;;5116779;28;20115;-95
2022/09/24 05:31:44;;;;;;;1999.90;999.90;;;18.30;99.90;;;;;;5117876;28;20056;-87
2022/09/24 05:34:10;;;;;;;1999.90;999.90;;;18.50;99.90;;;;;;5098094;28;20051;-87
2022/09/24 05:36:36;;;;;;;1999.90;999.90;;;18.10;99.90;;;;;;5115576;28;20123;-86
2022/09/24 05:39:02;;;;;;;1999.90;999.90;;;18.90;99.90;;;;;;5114511;28;20482;-85
2022/09/24 05:41:28;;;;;;;1999.90;999.90;;;18.90;99.90;;;;;;5114590;28;20510;-86
2022/09/24 05:43:57;;;;;;;1999.90;999.90;;;18.20;99.90;;;;;;5114674;28;20052;-86
2022/09/24 05:46:23;;;;;;;1999.90;999.90;;;18.60;99.90;;;;;;5114241;28;20506;-85
2022/09/24 05:48:48;;;;;;;1999.90;999.90;;;18.50;99.90;;;;;;5114745;28;20051;-84
2022/09/24 05:51:14;;;;;;;1999.90;999.90;;;18.60;99.90;;;;;;5096169;28;20047;-84
2022/09/24 05:53:40;;;;;;;1999.90;999.90;;;18.20;99.90;;;;;;5114852;28;20392;-84
2022/09/24 05:56:06;;;;;;;1999.90;999.90;;;19.00;99.90;;;;;;5114101;28;20035;-85
2022/09/24 05:58:31;;;;;;;1999.90;999.90;;;18.40;99.90;;;;;;5113897;28;20048;-84
2022/09/24 06:01:03;;;;;;;1999.90;999.90;;;18.50;99.90;;;;;;5115928;28;20035;-83
2022/09/24 06:03:28;;;;;;;1999.90;999.90;;;18.90;99.90;;;;;;5115277;28;20047;-83
2022/09/24 06:05:55;;;;;;;1999.90;999.90;;;17.90;99.90;;;;;;5097745;28;20494;-83
2022/09/24 06:08:21;;;;;;;1999.90;999.90;;;17.90;99.90;;;;;;5097044;28;20062;-83
2022/09/24 06:10:47;;;;;;;1999.90;999.90;;;18.00;99.90;;;;;;5116042;28;20054;-82
2022/09/24 06:13:17;;;;;;;1999.90;999.90;;;17.90;99.90;;;;;;5113450;28;20140;-83
2022/09/24 06:15:43;;;;;;;1999.90;999.90;;;18.40;99.90;;;;;;5096514;28;20039;-82
2022/09/24 06:18:10;;;;;;;1999.90;999.90;;;18.00;99.90;;;;;;5113713;28;20059;-83
2022/09/24 06:20:37;;;;;;;1999.90;999.90;;;19.20;99.90;;;;;;5115716;28;20051;-83
2022/09/24 06:23:03;;;;;;;1999.90;999.90;;;19.30;99.90;;;;;;5114089;28;20548;-82
2022/09/24 06:25:29;;;;;;;1999.90;999.90;;;18.90;99.90;;;;;;5114731;28;20557;-82
2022/09/24 06:28:00;;;;;;;1999.90;999.90;;;18.10;99.90;;;;;;5114210;28;20403;-83
2022/09/24 06:30:34;;;;;;;1999.90;999.90;;;19.40;99.90;;;;;;5115092;28;20112;-83
2022/09/24 06:33:05;;;;;;;1999.90;999.90;;;19.00;99.90;;;;;;5115170;28;20036;-83
2022/09/24 06:35:34;;;;;;;1999.90;999.90;;;19.40;99.90;;;;;;5115284;28;20079;-83
2022/09/24 06:37:59;;;;;;;1999.90;999.90;;;18.20;99.90;;;;;;5114511;28;20541;-83
2022/09/24 06:40:25;;;;;;;1999.90;999.90;;;18.30;99.90;;;;;;5115095;28;20052;-83
2022/09/24 06:42:52;;;;;;;1999.90;999.90;;;18.70;99.90;;;;;;5096338;28;20052;-83
2022/09/24 06:45:19;;;;;;;1999.90;999.90;;;18.60;99.90;;;;;;5115154;28;20126;-83
2022/09/24 06:47:54;;;;;;;1999.90;999.90;;;18.50;99.90;;;;;;5097322;28;20044;-82
2022/09/24 06:50:21;;;;;;;1999.90;999.90;;;18.40;99.90;;;;;;5114872;28;20086;-83
2022/09/24 06:52:47;;;;;;;1999.90;999.90;;;19.70;99.90;;;;;;5114795;28;20098;-83
2022/09/24 06:55:14;;;;;;;1999.90;999.90;;;18.80;99.90;;;;;;5114218;28;20496;-83
2022/09/24 06:57:40;;;;;;;1999.90;999.90;;;18.90;99.90;;;;;;5114195;28;20377;-83
2022/09/24 07:00:06;;;;;;;1999.90;999.90;;;19.70;99.90;;;;;;5096558;28;20483;-83
2022/09/24 07:02:32;;;;;;;1999.90;999.90;;;18.70;99.90;;;;;;5114864;28;20123;-83
2022/09/24 07:04:58;;;;;;;1999.90;999.90;;;18.60;99.90;;;;;;5114029;28;20090;-83
2022/09/24 07:07:30;;;;;;;1999.90;999.90;;;20.00;99.90;;;;;;5095989;28;20079;-83
2022/09/24 07:09:56;;;;;;;1999.90;999.90;;;18.70;99.90;;;;;;5113692;28;20088;-83
2022/09/24 07:12:22;;;;;;;1999.90;999.90;;;20.00;99.90;;;;;;5113034;28;20086;-83
2022/09/24 07:14:48;;;;;;;1999.90;999.90;;;18.70;99.90;;;;;;5113791;28;20043;-83
2022/09/24 07:17:14;;;;;;;1999.90;999.90;;;18.70;99.90;;;;;;5094699;28;20074;-83
2022/09/24 07:19:40;;;;;;;1999.90;999.90;;;19.00;99.90;;;;;;5113475;28;20054;-82
2022/09/24 07:22:06;;;;;;;1999.90;999.90;;;19.80;99.90;;;;;;5113906;28;20043;-82
2022/09/24 07:24:32;;;;;;;1999.90;999.90;;;18.70;99.90;;;;;;5113315;28;20389;-82
2022/09/24 07:26:58;;;;;;;1999.90;999.90;;;18.90;99.90;;;;;;5112844;28;20039;-82
2022/09/24 07:29:23;;;;;;;1999.90;999.90;;;19.20;99.90;;;;;;5113535;28;20040;-82
2022/09/24 07:31:49;;;;;;;1999.90;999.90;;;19.40;99.90;;;;;;5095749;28;20043;-82
2022/09/24 07:34:14;;;;;;;1999.90;999.90;;;20.00;99.90;;;;;;5114235;28;20381;-83
2022/09/24 07:36:41;;;;;;;1999.90;999.90;;;19.10;99.90;;;;;;5114566;28;20430;-81
2022/09/24 07:39:07;;;;;;;1999.90;999.90;;;19.20;99.90;;;;;;5113335;28;20492;-81
2022/09/24 07:41:33;;;;;;;1999.90;999.90;;;19.00;99.90;;;;;;5113237;28;20050;-81
2022/09/24 07:43:59;;;;;;;1999.90;999.90;;;20.00;99.90;;;;;;5096429;28;20400;-81
2022/09/24 07:46:25;;;;;;;1999.90;999.90;;;19.10;99.90;;;;;;5113621;28;20090;-82
2022/09/24 07:48:56;;;;;;;1999.90;999.90;;;20.60;99.90;;;;;;5113089;28;20039;-82
2022/09/24 07:51:24;;;;;;;1999.90;999.90;;;20.70;99.90;;;;;;5113667;28;20043;-81
2022/09/24 07:53:50;;;;;;;;;;;20.60;99.90;;;;;;5096360;28;20134;-81
2022/09/24 07:56:16;;;;;;;1999.90;999.90;;;19.30;99.90;;;;;;5112698;28;19963;-83
2022/09/24 07:58:42;;;;;;;1999.90;999.90;;;19.20;99.90;;;;;;5114137;28;20489;-81
2022/09/24 08:01:08;;;;;;;1999.90;999.90;;;19.80;99.90;;;;;;5114047;28;20415;-82
2022/09/24 08:03:34;;;;;;;1999.90;999.90;;;20.00;99.90;;;;;;5113909;28;20043;-82
2022/09/24 08:06:00;;;;;;;1999.90;999.90;;;21.70;99.90;;;;;;5113375;28;20047;-82
2022/09/24 08:08:26;;;;;;;1999.90;999.90;;;20.90;99.90;;;;;;5095751;28;20044;-82
2022/09/24 08:10:52;;;;;;;1999.90;999.90;;;21.90;99.90;;;;;;5112701;28;20040;-82
2022/09/24 08:13:18;;;;;;;1999.90;999.90;;;23.30;99.90;;;;;;5113163;28;20054;-82
2022/09/24 08:15:44;;;;;;;1999.90;999.90;;;22.80;99.90;;;;;;5095452;28;20394;-82
2022/09/24 08:18:10;;;;;;;1999.90;999.90;;;23.10;99.90;;;;;;5113439;28;20052;-82
2022/09/24 08:20:37;;;;;;;1999.90;999.90;;;22.70;99.90;;;;;;5113341;28;20047;-81
2022/09/24 08:23:06;;;;;;;1999.90;999.90;;;22.10;99.90;;;;;;5113062;28;20487;-81
2022/09/24 08:25:32;;;;;;;1999.90;999.90;;;22.00;99.90;;;;;;5113481;28;20078;-81
2022/09/24 08:28:05;;;;;;;1999.90;999.90;;;21.50;99.90;;;;;;5094494;28;20116;-81
2022/09/24 08:30:32;;;;;;;1999.90;999.90;;;20.40;99.90;;;;;;5113333;28;20050;-80
2022/09/24 08:32:58;;;;;;;1999.90;999.90;;;20.90;99.90;;;;;;5095304;28;20047;-81
2022/09/24 08:35:24;;;;;;;1999.90;999.90;;;20.10;99.90;;;;;;5113491;28;20501;-81
2022/09/24 08:37:53;;;;;;;1999.90;999.90;;;20.10;99.90;;;;;;5113162;28;20122;-80
2022/09/24 08:40:23;;;;;;;1999.90;999.90;;;19.90;99.90;;;;;;5113158;28;20081;-81
2022/09/24 08:43:02;;;;;;;1999.90;999.90;;;19.70;99.90;;;;;;5112654;28;20396;-80
2022/09/24 08:48:20;;;;;;;1999.90;999.90;;;19.70;99.90;;;;;;5095119;28;20467;-80
2022/09/24 08:50:56;;;;;;;1999.90;999.90;;;19.90;99.90;;;;;;5113185;28;20050;-80
2022/09/24 08:53:38;;;;;;;1999.90;999.90;;;20.90;99.90;;;;;;5112832;28;20052;-80
2022/09/24 08:56:07;;;;;;;1999.90;999.90;;;21.00;99.90;;;;;;5113319;28;20538;-80
2022/09/24 08:59:14;;;;;;;1999.90;999.90;;;20.20;99.90;;;;;;5112048;28;20056;-80
2022/09/24 09:02:15;;;;;;;1999.90;999.90;;;20.30;99.90;;;;;;5033165;28;20053;-80
2022/09/24 09:05:05;;;;;;;1999.90;999.90;;;21.20;99.90;;;;;;5073316;28;20082;-81
2022/09/24 09:07:42;;;;;;;1999.90;999.90;;;20.30;99.90;;;;;;5117008;28;20148;-81
2022/09/24 09:10:15;;;;;;;1999.90;999.90;;;20.90;99.90;;;;;;5117573;28;20057;-81
2022/09/24 09:13:03;;;;;;;1999.90;999.90;;;20.30;99.90;;;;;;5099144;28;20052;-80
2022/09/24 09:15:35;;;;;;;1999.90;999.90;;;21.00;99.90;;;;;;5116561;28;20415;-81
2022/09/24 09:18:05;;;;;;;1999.90;999.90;;;20.10;99.90;;;;;;5116882;28;20091;-81
2022/09/24 09:20:40;;;;;;;1999.90;999.90;;;20.00;99.90;;;;;;5117134;28;20062;-81
2022/09/24 09:23:31;;;;;;;1999.90;999.90;;;20.90;99.90;;;;;;5098563;28;20047;-80
2022/09/24 09:25:59;;;;;;;1999.90;999.90;;;20.10;99.90;;;;;;5115011;28;20051;-81
2022/09/24 09:28:26;;;;;;;1999.90;999.90;;;20.30;99.90;;;;;;5115232;28;20071;-81
2022/09/24 09:30:57;;;;;;;1999.90;999.90;;;20.10;99.90;;;;;;5117152;28;20048;-80
2022/09/24 09:33:42;;;;;;;1999.90;999.90;;;20.10;99.90;;;;;;5116259;28;20056;-80
2022/09/24 09:36:10;;;;;;;1999.90;999.90;;;20.10;99.90;;;;;;5115900;28;20055;-80
2022/09/24 09:38:43;;;;;;;1999.90;999.90;;;20.80;99.90;;;;;;5116155;28;20054;-80
2022/09/24 09:41:35;;;;;;;1999.90;999.90;;;19.90;99.90;;;;;;5116803;28;20135;-80
2022/09/24 09:44:15;;;;;;;1999.90;999.90;;;19.80;99.90;;;;;;5098073;28;20058;-79
2022/09/24 09:47:08;;;;;;;1999.90;999.90;;;20.60;99.90;;;;;;5115986;28;20079;-79
2022/09/24 09:49:37;;;;;;;1999.90;999.90;;;19.80;99.90;;;;;;5107259;28;20055;-80
2022/09/24 09:52:12;;;;;;;1999.90;999.90;;;19.90;99.90;;;;;;5098401;28;20502;-79
2022/09/24 09:54:38;;;;;;;1999.90;999.90;;;19.80;99.90;;;;;;5097669;28;20087;-84
2022/09/24 09:57:05;;;;;;;1999.90;999.90;;;20.80;99.90;;;;;;5115984;28;20079;-79
2022/09/24 09:59:34;;;;;;;1999.90;999.90;;;19.90;99.90;;;;;;5115865;28;20051;-80
2022/09/24 10:02:00;;;;;;;1999.90;999.90;;;20.70;99.90;;;;;;5116713;28;20461;-80
2022/09/24 10:04:42;;;;;;;1999.90;999.90;;;20.70;99.90;;;;;;5115980;28;20048;-85
2022/09/24 10:07:09;;;;;;;1999.90;999.90;;;19.90;99.90;;;;;;5115456;28;20044;-79
2022/09/24 10:09:36;;;;;;;1999.90;999.90;;;20.30;99.90;;;;;;5115434;28;20463;-80
2022/09/24 10:12:23;;;;;;;1999.90;999.90;;;20.40;99.90;;;;;;5115584;28;20325;-79
2022/09/24 10:15:02;;;;;;;1999.90;999.90;;;20.30;99.90;;;;;;5097229;28;20625;-80
2022/09/24 10:17:38;;;;;;;1999.90;999.90;;;20.00;99.90;;;;;;5114209;28;20043;-83
2022/09/24 10:20:14;;;;;;;1999.90;999.90;;;20.30;99.90;;;;;;5095246;28;20546;-79
2022/09/24 10:22:44;;;;;;;1999.90;999.90;;;19.90;99.90;;;;;;5093673;28;20105;-84
2022/09/24 10:25:23;;;;;;;1999.90;999.90;;;20.00;99.90;;;;;;5094454;28;20489;-80
2022/09/24 10:30:32;;;;;;;1999.90;999.90;;;20.10;99.90;;;;;;5094350;28;20048;-80
2022/09/24 10:30:54;;;;;;;1999.90;999.90;;;20.40;99.90;;;;;;5077086;28;20063;-79
2022/09/24 10:33:19;;;;;;;;;;;20.50;99.90;;;;;;5095256;28;20052;-80
2022/09/24 10:35:45;;;;;;;1999.90;999.90;;;20.40;99.90;;;;;;5077240;28;19920;-79
2022/09/24 10:38:24;;;;;;;1999.90;999.90;;;20.30;99.90;;;;;;5094376;28;20530;-80
2022/09/24 10:40:50;;;;;;;1999.90;999.90;;;19.60;99.90;;;;;;5094880;28;20127;-79
2022/09/24 10:43:20;;;;;;;1999.90;999.90;;;20.00;99.90;;;;;;5094709;28;20131;-83
2022/09/24 10:45:55;;;;;;;1999.90;999.90;;;19.80;99.90;;;;;;5094686;28;20518;-79
2022/09/24 10:48:41;;;;;;;1999.90;999.90;;;19.50;99.90;;;;;;5094842;28;20431;-80
2022/09/24 10:51:40;;;;;;;1999.90;999.90;;;19.90;99.90;;;;;;5094385;28;20044;-80
2022/09/24 10:54:35;;;;;;;1999.90;999.90;;;19.50;99.90;;;;;;5094229;28;20048;-80
2022/09/24 10:57:33;;;;;;;1999.90;999.90;;;20.00;99.90;;;;;;5041268;28;20105;-80
2022/09/24 11:00:27;;;;;;;1999.90;999.90;;;19.70;99.90;;;;;;5090738;28;20094;-79
2022/09/24 11:03:11;;;;;;;1999.90;999.90;;;19.80;99.90;;;;;;5093434;28;20127;-80
2022/09/24 11:06:01;;;;;;;1999.90;999.90;;;19.60;99.90;;;;;;5093784;28;20131;-80
2022/09/24 11:08:48;;;;;;;1999.90;999.90;;;19.50;99.90;;;;;;5093472;28;20062;-79
2022/09/24 11:11:33;;;;;;;1999.90;999.90;;;19.50;99.90;;;;;;5093337;28;20051;-82
2022/09/24 11:14:11;;;;;;;1999.90;999.90;;;19.90;99.90;;;;;;5094140;28;20101;-79
2022/09/24 11:16:53;;;;;;;1999.90;999.90;;;20.10;99.90;;;;;;5093336;28;20051;-81
2022/09/24 11:19:22;;;;;;;1999.90;999.90;;;19.90;99.90;;;;;;5109502;28;20127;-80
2022/09/24 11:22:02;;;;;;;1999.90;999.90;;;20.00;99.90;;;;;;5114041;28;20048;-80
2022/09/24 11:24:41;;;;;;;1999.90;999.90;;;19.70;99.90;;;;;;5114449;28;20043;-79
2022/09/24 11:27:25;;;;;;;1999.90;999.90;;;20.40;99.90;;;;;;5114442;28;20107;-80
2022/09/24 11:29:57;;;;;;;1999.90;999.90;;;20.30;99.90;;;;;;5114223;28;20106;-80
2022/09/24 11:32:58;;;;;;;1999.90;999.90;;;20.00;99.90;;;;;;5113987;28;20052;-79
2022/09/24 11:35:46;;;;;;;1999.90;999.90;;;20.40;99.90;;;;;;5114115;28;20118;-80
2022/09/24 11:38:23;;;;;;;1999.90;999.90;;;20.40;99.90;;;;;;5114323;28;20097;-80
2022/09/24 11:41:15;;;;;;;1999.90;999.90;;;20.20;84.80;;;;;;5113950;28;20083;-80
2022/09/24 11:43:57;;;;;;;1999.90;999.90;;;20.30;99.90;;;;;;5113648;28;20054;-79
2022/09/24 11:46:46;;;;;;;1999.90;999.90;;;20.30;99.90;;;;;;5114065;28;20043;-78
2022/09/24 11:49:36;;;;;;;1999.90;999.90;;;19.90;99.90;;;;;;5113624;28;20507;-78
2022/09/24 11:52:14;;;;;;;1999.90;999.90;;;19.90;99.90;;;;;;5113812;28;20108;-79
2022/09/24 11:55:12;;;;;;;1999.90;999.90;;;19.80;99.90;;;;;;5114263;28;20051;-79
2022/09/24 11:57:53;;;;;;;1999.90;999.90;;;19.90;99.90;;;;;;5113739;28;20035;-80
2022/09/24 12:00:20;;;;;;;1999.90;999.90;;;20.00;1.00;;;;;;5113640;28;20130;-80
2022/09/24 12:03:05;;;;;;;1999.90;999.90;;;20.00;1.00;;;;;;5095673;28;20043;-79
2022/09/24 12:05:40;;;;;;;1999.90;999.90;;;19.70;1.00;;;;;;5113285;28;20062;-79
2022/09/24 12:08:31;;;;;;;1999.90;999.90;;;19.70;99.90;;;;;;5113224;28;20523;-79
2022/09/24 12:11:04;;;;;;;1999.90;999.90;;;19.70;99.90;;;;;;5112994;28;20070;-80
2022/09/24 12:13:37;;;;;;;1999.90;999.90;;;19.60;99.90;;;;;;5113404;28;20399;-80
2022/09/24 12:16:10;;;;;;;1999.90;999.90;;;19.80;99.90;;;;;;5112683;28;20502;-81
2022/09/24 12:18:55;;;;;;;1999.90;999.90;;;19.50;99.90;;;;;;5113306;28;20091;-80
2022/09/24 12:21:35;;;;;;;1999.90;999.90;;;19.80;99.90;;;;;;5111656;28;20048;-80
2022/09/24 12:24:15;;;;;;;1999.90;999.90;;;19.70;1.00;;;;;;5112798;28;20048;-80
2022/09/24 12:26:43;;;;;;;1999.90;999.90;;;19.60;99.90;;;;;;5094015;28;20434;-80
2022/09/24 12:32:55;;;;;;;1999.90;999.90;;;19.40;99.90;;;;;;5112445;28;20108;-80
2022/09/24 12:35:21;;;;;;;1999.90;999.90;;;19.60;99.90;;;;;;5112507;28;20052;-81